Bookmark and Share
Track history (hours):
 

Shin-oh Maru

Last reported at 2014-Apr-19 21:15 UTC. Time now 2014-Apr-20 23:51 UTC.
Position N 35°40' E 140°59'.

Length 161 m; draft 7 m.

Type: Ship (hazmat cat A). MMSI: 431100859.

NotesDate/timePositionNaut miles runAvg speedWind from/ knotsBaromVisibWave heightAir tempDewpointWater temp
2014-Apr-19 21:15N 35°40' E 140°59'1317.8
2014-Apr-19 20:30N 35°29' E 140°49'1917.7
2014-Apr-19 19:25N 35°14' E 140°34'1817.4
2014-Apr-19 18:25N 35°00' E 140°21'1517.8
2014-Apr-19 17:33N 34°52' E 140°05'1716.5
2014-Apr-19 16:32N 34°51' E 139°45'1616.5
2014-Apr-19 15:33N 35°07' E 139°44'1313.3
2014-Apr-19 14:34N 35°20' E 139°42'1514.8
2014-Apr-19 13:34N 35°34' E 139°49'5 4.8
2014-Apr-19 12:34N 35°38' E 139°46'0 0.0
2014-Apr-19 11:26N 35°38' E 139°46'0 0.0
2014-Apr-19 10:32N 35°38' E 139°46'0 0.0
2014-Apr-19 09:26N 35°38' E 139°46'2 2.8
2014-Apr-19 08:33N 35°36' E 139°47'1313.0
2014-Apr-19 07:33N 35°23' E 139°46'1211.7
2014-Apr-19 06:33N 35°11' E 139°47'1818.1
2014-Apr-19 05:33N 34°53' E 139°42'1414.5
2014-Apr-19 04:33N 34°52' E 140°00'1817.7
2014-Apr-19 03:33N 35°01' E 140°19'1717.6
2014-Apr-19 02:33N 35°13' E 140°35'  
2014-Apr-16 22:06N 35°58' E 141°06'1017.7
2014-Apr-16 21:31N 35°48' E 141°02'1717.4
2014-Apr-16 20:33N 35°33' E 140°53'1918.3
2014-Apr-16 19:32N 35°18' E 140°40'1918.5
2014-Apr-16 18:29N 35°03' E 140°25'1617.7
2014-Apr-16 17:33N 34°54' E 140°07'1717.0
2014-Apr-16 16:33N 34°50' E 139°47'1716.6
2014-Apr-16 15:33N 35°07' E 139°44'1414.1
2014-Apr-16 14:33N 35°20' E 139°42'1514.7
2014-Apr-16 13:33N 35°34' E 139°49'4 4.0
2014-Apr-16 12:29N 35°38' E 139°46'0 0.0
2014-Apr-16 11:32N 35°38' E 139°46'0 0.0
2014-Apr-16 10:29N 35°38' E 139°46'0 0.0
2014-Apr-16 09:29N 35°38' E 139°46'0 0.0
2014-Apr-16 08:30N 35°38' E 139°46'1010.7
2014-Apr-16 07:33N 35°29' E 139°52'1313.2
2014-Apr-16 06:33N 35°17' E 139°46'1716.6
2014-Apr-16 05:33N 35°00' E 139°43'1513.9
2014-Apr-16 04:31N 34°51' E 139°56'1717.9
2014-Apr-16 03:32N 34°59' E 140°15'1717.2
2014-Apr-16 02:32N 35°10' E 140°31'1717.2
2014-Apr-16 01:33N 35°24' E 140°43'  
2014-Apr-12 21:11N 35°43' E 140°60'1218.6
2014-Apr-12 20:32N 35°32' E 140°52'2319.9
2014-Apr-12 19:21N 35°13' E 140°35'1618.6
2014-Apr-12 18:31N 35°02' E 140°23'1718.2
2014-Apr-12 17:33N 34°53' E 140°04'1616.4
2014-Apr-12 16:33N 34°52' E 139°45'1817.6
2014-Apr-12 15:33N 35°10' E 139°45'1414.2
2014-Apr-12 14:33N 35°24' E 139°42'1313.2
2014-Apr-12 13:33N 35°37' E 139°46'1 1.2
2014-Apr-12 12:33N 35°38' E 139°46'0 0.0
2014-Apr-12 11:30N 35°38' E 139°46'0 0.0
2014-Apr-12 10:27N 35°38' E 139°46'0 0.0
2014-Apr-12 09:30N 35°38' E 139°46'0 0.0
2014-Apr-12 08:33N 35°38' E 139°46'1111.0
2014-Apr-12 07:33N 35°27' E 139°50'1212.4
2014-Apr-12 06:34N 35°15' E 139°47'1818.2
2014-Apr-12 05:33N 34°58' E 139°42'1716.3
2014-Apr-12 04:32N 34°53' E 140°01'3020.1
2014-Apr-12 03:03N 35°10' E 140°32'79 1.5
2014-Apr-09 23:05N 36°22' E 141°11'1319.4
2014-Apr-09 22:26N 36°10' E 141°08'1719.0
2014-Apr-09 21:32N 35°53' E 141°04'  

Dump ship's entire track history

sailing weather and tide predictions

Shin-oh Maru — JG5594 — position and weather